createdAt,value
2023-03-31T00:01:28.709Z,11.24
2023-03-31T00:06:37.869Z,11.16
2023-03-31T00:11:39.757Z,11.09
2023-03-31T00:16:41.191Z,11.04
2023-03-31T00:21:42.747Z,10.92
2023-03-31T00:26:44.424Z,10.86
2023-03-31T00:31:45.945Z,10.74
2023-03-31T00:36:47.741Z,10.68
2023-03-31T00:41:49.604Z,10.58
2023-03-31T00:46:51.209Z,10.58
2023-03-31T00:51:53.979Z,10.49
2023-03-31T00:56:58.262Z,10.43
2023-03-31T01:02:02.779Z,10.33
2023-03-31T01:07:12.431Z,10.30
2023-03-31T01:12:15.759Z,10.25
2023-03-31T01:17:19.956Z,10.16
2023-03-31T01:22:33.607Z,10.14
2023-03-31T01:27:54.142Z,10.24
2023-03-31T01:32:55.580Z,10.26
2023-03-31T01:38:16.440Z,10.36
2023-03-31T01:43:25.008Z,10.55
2023-03-31T01:48:26.332Z,10.52
2023-03-31T01:53:27.631Z,10.37
2023-03-31T01:58:38.681Z,10.35
2023-03-31T02:03:45.904Z,10.22
2023-03-31T02:08:53.865Z,10.15
2023-03-31T02:13:56.504Z,10.19
2023-03-31T02:19:05.969Z,10.22
2023-03-31T02:24:10.584Z,10.53
2023-03-31T02:29:11.906Z,10.74
2023-03-31T02:34:13.316Z,10.83
2023-03-31T02:39:17.466Z,10.77
2023-03-31T02:44:19.550Z,10.77
2023-03-31T02:49:21.486Z,10.76
2023-03-31T02:54:28.946Z,10.53
2023-03-31T02:59:30.689Z,10.39
2023-03-31T03:04:50.980Z,10.23
2023-03-31T03:10:02.820Z,10.16
2023-03-31T03:15:04.156Z,10.22
2023-03-31T03:20:09.494Z,10.17
2023-03-31T03:25:13.187Z,10.22
2023-03-31T03:30:14.610Z,10.43
2023-03-31T03:35:16.119Z,10.36
2023-03-31T03:40:17.520Z,10.34
2023-03-31T03:45:18.815Z,10.36
2023-03-31T03:50:20.173Z,10.40
2023-03-31T03:55:21.542Z,10.40
2023-03-31T04:00:23.012Z,10.49
2023-03-31T04:05:24.434Z,10.48
2023-03-31T04:10:25.843Z,10.50
2023-03-31T04:15:27.169Z,10.52
2023-03-31T04:20:30.589Z,10.46
2023-03-31T04:25:32.003Z,10.33
2023-03-31T04:30:33.389Z,10.03
2023-03-31T04:35:50.024Z,9.81
2023-03-31T04:40:52.225Z,9.68
2023-03-31T04:45:53.543Z,9.54
2023-03-31T04:50:54.877Z,9.46
2023-03-31T04:55:56.194Z,9.43
2023-03-31T05:00:57.619Z,9.42
2023-03-31T05:05:58.969Z,9.41
2023-03-31T05:11:00.474Z,9.46
2023-03-31T05:16:08.704Z,9.51
2023-03-31T05:21:11.023Z,9.54
2023-03-31T05:26:13.610Z,9.70
2023-03-31T05:31:15.024Z,9.73
2023-03-31T05:36:17.321Z,9.69
2023-03-31T05:41:18.662Z,9.53
2023-03-31T05:46:22.720Z,9.30
2023-03-31T05:51:24.314Z,9.19
2023-03-31T05:56:27.577Z,9.06
2023-03-31T06:01:29.999Z,8.99
2023-03-31T06:06:33.973Z,9.10
2023-03-31T06:11:36.227Z,9.10
2023-03-31T06:16:37.565Z,9.02
2023-03-31T06:21:38.916Z,9.02
2023-03-31T06:26:40.493Z,9.03
2023-03-31T06:31:41.846Z,9.09
2023-03-31T06:36:43.182Z,9.11
2023-03-31T06:41:44.491Z,9.11
2023-03-31T06:46:46.045Z,9.26
2023-03-31T06:51:47.548Z,9.37
2023-03-31T06:56:48.933Z,9.51
2023-03-31T07:01:50.574Z,9.68
2023-03-31T07:06:51.969Z,9.74
2023-03-31T07:11:56.546Z,9.76
2023-03-31T07:16:58.484Z,9.84
2023-03-31T07:21:59.882Z,10.11
2023-03-31T07:27:01.205Z,10.53
2023-03-31T07:32:02.587Z,10.51
2023-03-31T07:37:03.950Z,10.82
2023-03-31T07:42:05.397Z,11.19
2023-03-31T07:47:06.834Z,11.54
2023-03-31T07:52:08.175Z,11.87
2023-03-31T07:57:10.120Z,13.75
2023-03-31T08:02:16.519Z,12.47
2023-03-31T08:07:17.905Z,11.82
2023-03-31T08:12:19.212Z,11.55
2023-03-31T08:17:20.588Z,11.38
2023-03-31T08:22:23.287Z,11.58
2023-03-31T08:27:26.079Z,11.51
2023-03-31T08:32:27.534Z,11.81
2023-03-31T08:37:28.974Z,12.00
2023-03-31T08:42:33.012Z,12.21
2023-03-31T08:47:36.942Z,12.44
2023-03-31T08:52:42.779Z,12.82
2023-03-31T08:57:50.301Z,13.26
2023-03-31T09:03:03.800Z,13.60
2023-03-31T09:08:12.527Z,13.68
2023-03-31T09:13:23.189Z,13.79
2023-03-31T09:18:32.077Z,13.93
2023-03-31T09:23:39.631Z,13.79
2023-03-31T09:28:40.949Z,14.00
2023-03-31T09:33:44.570Z,14.00
2023-03-31T09:38:46.484Z,13.60
2023-03-31T09:43:49.482Z,13.30
2023-03-31T09:49:06.775Z,12.59
2023-03-31T09:54:30.992Z,12.17
2023-03-31T09:59:34.118Z,11.77
2023-03-31T10:04:35.710Z,11.64
2023-03-31T10:09:38.336Z,11.65
2023-03-31T10:14:50.064Z,12.22
2023-03-31T10:19:57.019Z,12.67
2023-03-31T10:25:09.031Z,13.19
2023-03-31T10:30:11.848Z,13.68
2023-03-31T10:35:27.489Z,14.43
2023-03-31T10:40:30.664Z,15.86
2023-03-31T10:45:41.926Z,15.96
2023-03-31T10:50:43.542Z,14.88
2023-03-31T10:55:47.910Z,14.85
2023-03-31T11:01:22.156Z,14.36
2023-03-31T11:06:55.971Z,15.01
2023-03-31T11:12:15.945Z,15.62
2023-03-31T11:17:20.945Z,16.44
2023-03-31T11:22:37.592Z,16.40
2023-03-31T11:28:00.436Z,15.80
2023-03-31T11:33:01.823Z,15.41
2023-03-31T11:38:17.256Z,15.15
2023-03-31T11:43:42.681Z,14.90
2023-03-31T11:48:44.839Z,14.70
2023-03-31T11:53:46.971Z,14.78
2023-03-31T11:58:56.838Z,14.47
2023-03-31T12:04:04.013Z,14.63
2023-03-31T12:09:15.911Z,15.17
2023-03-31T12:14:17.259Z,14.85
2023-03-31T12:19:22.674Z,14.58
2023-03-31T12:24:24.006Z,13.86
2023-03-31T12:29:30.896Z,14.13
2023-03-31T12:34:32.965Z,15.67
2023-03-31T12:39:37.403Z,16.04
2023-03-31T12:44:49.338Z,16.72
2023-03-31T12:49:56.571Z,16.60
2023-03-31T12:55:16.368Z,16.16
2023-03-31T13:00:21.282Z,15.93
2023-03-31T13:05:37.973Z,15.64
2023-03-31T13:10:58.800Z,15.47
2023-03-31T13:16:01.175Z,15.72
2023-03-31T13:26:30.972Z,15.56
2023-03-31T13:31:52.260Z,14.72
2023-03-31T13:36:56.303Z,14.53
2023-03-31T13:42:08.012Z,14.95
2023-03-31T13:47:21.330Z,15.17
2023-03-31T13:52:48.360Z,15.09
2023-03-31T13:58:24.868Z,14.95
2023-03-31T14:03:38.548Z,14.86
2023-03-31T14:08:47.033Z,13.43
2023-03-31T14:14:00.794Z,12.79
2023-03-31T14:19:07.973Z,12.95
2023-03-31T14:24:15.112Z,13.05
2023-03-31T14:29:24.704Z,13.01
2023-03-31T14:34:26.205Z,13.22
2023-03-31T14:39:31.036Z,13.37
2023-03-31T14:44:33.551Z,13.70
2023-03-31T14:49:36.828Z,14.12
2023-03-31T14:54:38.675Z,14.47
2023-03-31T14:59:40.101Z,14.68
2023-03-31T15:04:46.670Z,14.72
2023-03-31T15:09:50.535Z,14.72
2023-03-31T15:14:54.637Z,14.62
2023-03-31T15:19:57.719Z,14.52
2023-03-31T15:24:59.118Z,14.60
2023-03-31T15:30:02.713Z,14.69
2023-03-31T15:35:18.856Z,14.58
2023-03-31T15:40:25.135Z,14.39
2023-03-31T15:45:27.037Z,14.26
2023-03-31T15:50:28.815Z,14.20
2023-03-31T15:55:32.080Z,14.02
2023-03-31T16:00:33.368Z,14.06
2023-03-31T16:11:12.456Z,13.66
2023-03-31T16:16:15.836Z,13.38
2023-03-31T16:21:26.330Z,13.13
2023-03-31T16:26:28.013Z,13.07
2023-03-31T16:31:31.035Z,13.12
2023-03-31T16:36:32.613Z,13.15
2023-03-31T16:41:35.073Z,13.13
2023-03-31T16:46:36.430Z,13.08
2023-03-31T16:51:37.751Z,13.08
2023-03-31T16:56:39.065Z,13.04
2023-03-31T17:01:41.041Z,13.07
2023-03-31T17:06:42.612Z,13.05
2023-03-31T17:11:44.405Z,13.12
2023-03-31T17:16:48.497Z,13.22
2023-03-31T17:21:51.129Z,13.18
2023-03-31T17:26:52.438Z,13.05
2023-03-31T17:31:53.952Z,12.96
2023-03-31T17:36:57.042Z,12.84
2023-03-31T17:41:58.501Z,12.76
2023-03-31T17:46:59.805Z,12.61
2023-03-31T17:52:01.171Z,12.52
2023-03-31T17:57:03.388Z,12.32
2023-03-31T18:02:05.144Z,12.21
2023-03-31T18:07:07.026Z,12.10
2023-03-31T18:12:08.468Z,12.05
2023-03-31T18:17:14.648Z,12.03
2023-03-31T18:22:16.036Z,11.70
2023-03-31T18:27:18.234Z,11.41
2023-03-31T18:32:19.825Z,11.01
2023-03-31T18:37:21.580Z,10.75
2023-03-31T18:42:25.660Z,10.62
2023-03-31T18:47:27.238Z,10.62
2023-03-31T18:52:28.903Z,10.58
2023-03-31T18:57:30.680Z,10.52
2023-03-31T19:02:32.192Z,10.47
2023-03-31T19:07:33.848Z,10.48
2023-03-31T19:12:35.168Z,10.61
2023-03-31T19:17:36.656Z,10.59
2023-03-31T19:22:38.078Z,10.62
2023-03-31T19:27:40.217Z,10.76
2023-03-31T19:32:41.572Z,10.77
2023-03-31T19:37:43.500Z,10.77
2023-03-31T19:42:44.835Z,10.76
2023-03-31T19:47:46.324Z,10.47
2023-03-31T19:52:50.001Z,10.34
2023-03-31T19:57:51.642Z,10.25
2023-03-31T20:02:53.244Z,10.36
2023-03-31T20:07:54.631Z,10.42
2023-03-31T20:12:56.667Z,10.56
2023-03-31T20:17:58.071Z,10.74
2023-03-31T20:22:59.839Z,10.83
2023-03-31T20:28:01.586Z,10.84
2023-03-31T20:33:03.048Z,10.84
2023-03-31T20:38:04.978Z,10.83
2023-03-31T20:43:06.423Z,10.87
2023-03-31T20:48:07.848Z,10.98
2023-03-31T20:53:09.229Z,10.94
2023-03-31T20:58:10.535Z,10.93
2023-03-31T21:03:12.035Z,11.03
2023-03-31T21:08:13.552Z,11.05
2023-03-31T21:13:16.383Z,11.09
2023-03-31T21:18:17.727Z,11.08
2023-03-31T21:23:19.559Z,11.13
2023-03-31T21:28:22.736Z,11.16
2023-03-31T21:33:25.091Z,11.10
2023-03-31T21:38:27.808Z,11.06
2023-03-31T21:43:29.161Z,11.02
2023-03-31T21:48:30.529Z,10.90
2023-03-31T21:53:31.893Z,10.91
2023-03-31T21:58:33.406Z,10.80
2023-03-31T22:03:35.184Z,10.86
2023-03-31T22:08:37.231Z,10.81
2023-03-31T22:13:38.780Z,10.84
2023-03-31T22:18:40.143Z,10.82
2023-03-31T22:23:41.641Z,10.83
2023-03-31T22:28:42.966Z,10.73
2023-03-31T22:33:44.286Z,10.72
2023-03-31T22:38:45.751Z,10.71
2023-03-31T22:43:47.105Z,10.66
2023-03-31T22:48:49.483Z,10.55
2023-03-31T22:53:51.612Z,10.56
2023-03-31T22:58:55.562Z,10.48
2023-03-31T23:03:57.011Z,10.51
2023-03-31T23:08:58.632Z,10.46
2023-03-31T23:13:59.973Z,10.52
2023-03-31T23:19:01.333Z,10.51
2023-03-31T23:24:03.337Z,10.49
2023-03-31T23:29:04.838Z,10.56
2023-03-31T23:34:07.102Z,10.52
2023-03-31T23:39:08.530Z,10.52
2023-03-31T23:44:09.869Z,10.54
2023-03-31T23:49:11.864Z,10.49
2023-03-31T23:54:13.238Z,10.48
2023-03-31T23:59:15.457Z,10.45
